createdAt,value
2023-05-06T00:01:01.128Z,18.2
2023-05-06T00:11:01.319Z,17.4
2023-05-06T00:17:01.054Z,17.5
2023-05-06T00:22:01.066Z,18.4
2023-05-06T00:27:01.077Z,18.2
2023-05-06T00:32:01.166Z,18.1
2023-05-06T00:37:01.073Z,18.4
2023-05-06T00:42:01.119Z,17.8
2023-05-06T00:47:01.901Z,18.9
2023-05-06T00:52:01.100Z,19.7
2023-05-06T00:57:01.046Z,20.7
2023-05-06T01:02:01.059Z,20.3
2023-05-06T01:07:01.573Z,20.4
2023-05-06T01:12:01.067Z,18.9
2023-05-06T01:17:01.095Z,18.8
2023-05-06T01:22:01.072Z,18.2
2023-05-06T01:27:01.198Z,21.1
2023-05-06T01:32:01.062Z,21.9
2023-05-06T01:37:01.205Z,22.0
2023-05-06T01:42:01.062Z,22.1
2023-05-06T01:47:01.174Z,22.4
2023-05-06T01:52:01.069Z,20.9
2023-05-06T01:57:01.058Z,21.0
2023-05-06T02:02:01.112Z,21.3
2023-05-06T02:07:01.650Z,21.4
2023-05-06T02:12:01.068Z,21.7
2023-05-06T02:17:02.207Z,21.5
2023-05-06T02:22:01.077Z,22.3
2023-05-06T02:27:01.271Z,22.2
2023-05-06T02:37:01.085Z,21.4
2023-05-06T02:52:01.170Z,21.5
2023-05-06T02:57:01.119Z,22.6
2023-05-06T03:02:01.102Z,23.2
2023-05-06T03:07:01.112Z,24.4
2023-05-06T03:12:01.096Z,24.2
2023-05-06T03:17:01.107Z,25.7
2023-05-06T03:22:01.114Z,24.7
2023-05-06T03:28:01.098Z,24.9
2023-05-06T03:33:01.176Z,24.2
2023-05-06T03:43:01.744Z,23.4
2023-05-06T03:48:01.227Z,24.0
2023-05-06T03:53:01.096Z,24.3
2023-05-06T03:58:01.057Z,25.0
2023-05-06T04:03:01.110Z,24.6
2023-05-06T04:08:01.586Z,24.0
2023-05-06T04:13:01.097Z,23.7
2023-05-06T04:18:01.084Z,23.8
2023-05-06T04:23:01.104Z,23.0
2023-05-06T04:28:01.194Z,23.9
2023-05-06T04:33:01.073Z,25.7
2023-05-06T04:38:01.066Z,27.2
2023-05-06T04:43:01.065Z,27.7
2023-05-06T04:48:01.168Z,27.0
2023-05-06T04:53:01.071Z,26.1
2023-05-06T04:58:01.152Z,25.2
2023-05-06T05:03:01.154Z,25.1
2023-05-06T05:08:01.594Z,24.1
2023-05-06T05:13:01.078Z,25.2
2023-05-06T05:18:01.097Z,25.9
2023-05-06T05:23:01.058Z,27.4
2023-05-06T05:28:01.231Z,27.0
2023-05-06T05:33:01.130Z,30.8
2023-05-06T05:38:01.075Z,32.9
2023-05-06T05:43:01.072Z,34.4
2023-05-06T05:53:01.270Z,35.4
2023-05-06T05:58:01.067Z,34.4
2023-05-06T06:08:03.027Z,34.6
2023-05-06T06:13:02.092Z,35.1
2023-05-06T06:18:01.815Z,34.6
2023-05-06T06:23:01.050Z,34.7
2023-05-06T06:28:01.099Z,35.3
2023-05-06T06:33:01.972Z,34.9
2023-05-06T06:38:01.054Z,35.7
2023-05-06T06:43:01.086Z,36.5
2023-05-06T06:48:01.091Z,37.6
2023-05-06T06:53:01.824Z,36.4
2023-05-06T06:58:01.068Z,37.2
2023-05-06T07:03:01.169Z,37.4
2023-05-06T07:08:01.097Z,37.0
2023-05-06T07:18:01.166Z,37.4
2023-05-06T07:23:01.121Z,38.6
2023-05-06T07:28:01.063Z,39.7
2023-05-06T07:33:01.114Z,41.8
2023-05-06T07:38:01.496Z,43.4
2023-05-06T07:43:01.184Z,45.4
2023-05-06T07:48:01.084Z,45.9
2023-05-06T07:53:01.088Z,46.4
2023-05-06T07:58:02.662Z,47.0
2023-05-06T08:03:01.142Z,46.4
2023-05-06T08:08:01.094Z,44.7
2023-05-06T08:13:01.055Z,44.8
2023-05-06T08:18:10.307Z,43.6
2023-05-06T08:23:01.116Z,43.0
2023-05-06T08:28:01.102Z,42.0
2023-05-06T08:33:01.077Z,43.1
2023-05-06T08:38:01.234Z,43.8
2023-05-06T08:43:01.086Z,44.6
2023-05-06T08:48:01.116Z,46.4
2023-05-06T08:53:01.152Z,47.9
2023-05-06T08:58:01.161Z,48.9
2023-05-06T09:03:01.104Z,48.8
2023-05-06T09:08:01.062Z,48.1
2023-05-06T09:13:01.144Z,46.7
2023-05-06T09:18:01.153Z,46.9
2023-05-06T09:23:01.066Z,47.3
2023-05-06T09:28:01.140Z,47.4
2023-05-06T09:33:02.173Z,47.8
2023-05-06T09:38:01.596Z,46.5
2023-05-06T09:43:02.054Z,45.3
2023-05-06T09:48:01.232Z,43.7
2023-05-06T09:53:01.761Z,42.0
2023-05-06T10:08:02.865Z,43.0
2023-05-06T10:18:01.122Z,43.7
2023-05-06T10:28:01.873Z,44.1
2023-05-06T10:33:04.158Z,43.2
2023-05-06T10:38:01.054Z,42.6
2023-05-06T10:43:01.065Z,42.2
2023-05-06T10:48:01.268Z,40.8
2023-05-06T10:53:01.062Z,40.3
2023-05-06T10:58:01.162Z,39.3
2023-05-06T11:03:01.085Z,38.0
2023-05-06T11:08:09.480Z,33.6
2023-05-06T11:13:01.068Z,33.2
2023-05-06T11:18:01.088Z,32.2
2023-05-06T11:23:01.063Z,29.9
2023-05-06T11:28:01.360Z,28.4
2023-05-06T11:33:01.804Z,30.0
2023-05-06T11:38:01.102Z,28.8
2023-05-06T11:43:01.068Z,27.8
2023-05-06T11:49:01.164Z,29.9
2023-05-06T11:54:01.052Z,33.2
2023-05-06T11:59:01.519Z,36.8
2023-05-06T12:04:02.370Z,39.1
2023-05-06T12:09:01.160Z,41.4
2023-05-06T12:14:01.051Z,43.1
2023-05-06T12:19:02.419Z,42.5
2023-05-06T12:24:01.087Z,40.4
2023-05-06T12:29:03.819Z,38.2
2023-05-06T12:34:01.353Z,36.3
2023-05-06T12:39:01.144Z,34.8
2023-05-06T12:44:01.822Z,33.2
2023-05-06T12:49:01.225Z,34.5
2023-05-06T12:54:01.597Z,35.7
2023-05-06T12:59:02.387Z,36.5
2023-05-06T13:04:01.081Z,37.4
2023-05-06T13:09:01.246Z,38.1
2023-05-06T13:14:01.150Z,37.3
2023-05-06T13:19:01.097Z,38.7
2023-05-06T13:24:01.077Z,38.5
2023-05-06T13:29:02.170Z,36.0
2023-05-06T13:39:01.876Z,36.2
2023-05-06T13:44:01.711Z,35.4
2023-05-06T13:49:01.173Z,36.0
2023-05-06T13:54:02.300Z,38.5
2023-05-06T13:59:01.112Z,39.4
2023-05-06T14:04:01.074Z,40.1
2023-05-06T14:09:01.269Z,40.6
2023-05-06T14:14:01.847Z,40.9
2023-05-06T14:24:01.072Z,41.8
2023-05-06T14:34:01.125Z,40.5
2023-05-06T14:39:01.024Z,39.3
2023-05-06T14:44:01.052Z,38.0
2023-05-06T14:49:01.119Z,36.8
2023-05-06T14:54:02.355Z,37.1
2023-05-06T14:59:03.917Z,39.4
2023-05-06T15:04:01.133Z,41.2
2023-05-06T15:09:01.064Z,43.0
2023-05-06T15:14:02.214Z,44.5
2023-05-06T15:19:01.056Z,43.9
2023-05-06T15:24:01.608Z,42.9
2023-05-06T15:29:01.159Z,41.6
2023-05-06T15:34:01.147Z,40.6
2023-05-06T15:39:01.538Z,40.5
2023-05-06T15:44:01.137Z,39.2
2023-05-06T15:54:01.240Z,39.3
2023-05-06T15:59:01.194Z,39.6
2023-05-06T16:04:01.346Z,37.3
2023-05-06T16:09:01.082Z,38.1
2023-05-06T16:14:01.119Z,36.9
2023-05-06T16:19:01.107Z,37.3
2023-05-06T16:24:01.079Z,36.5
2023-05-06T16:29:01.609Z,37.4
2023-05-06T16:34:01.091Z,37.3
2023-05-06T16:39:02.629Z,37.6
2023-05-06T16:44:01.628Z,37.8
2023-05-06T16:49:01.081Z,37.4
2023-05-06T16:55:01.996Z,38.2
2023-05-06T17:00:01.605Z,38.3
2023-05-06T17:05:01.052Z,37.5
2023-05-06T17:10:01.080Z,36.8
2023-05-06T17:15:02.480Z,36.7
2023-05-06T17:20:01.057Z,36.0
2023-05-06T17:25:01.091Z,35.7
2023-05-06T17:30:01.884Z,36.0
2023-05-06T17:35:01.150Z,36.2
2023-05-06T17:40:03.001Z,36.1
2023-05-06T17:45:01.518Z,37.8
2023-05-06T17:50:01.066Z,37.7
2023-05-06T17:55:15.290Z,38.4
2023-05-06T18:00:01.467Z,39.4
2023-05-06T18:05:01.086Z,40.0
2023-05-06T18:10:01.707Z,37.8
2023-05-06T18:15:01.842Z,38.8
2023-05-06T18:20:01.064Z,39.7
2023-05-06T18:30:02.375Z,40.1
2023-05-06T18:35:01.257Z,41.4
2023-05-06T18:40:01.122Z,40.5
2023-05-06T18:45:01.224Z,38.6
2023-05-06T18:50:01.058Z,37.1
2023-05-06T18:55:01.167Z,36.7
2023-05-06T19:00:01.700Z,34.7
2023-05-06T19:05:01.052Z,32.7
2023-05-06T19:10:01.126Z,32.0
2023-05-06T19:15:01.886Z,31.8
2023-05-06T19:20:01.064Z,30.8
2023-05-06T19:25:01.071Z,30.7
2023-05-06T19:30:01.669Z,31.6
2023-05-06T19:35:01.181Z,30.8
2023-05-06T19:40:01.590Z,30.9
2023-05-06T19:45:09.210Z,30.0
2023-05-06T19:50:01.061Z,29.2
2023-05-06T19:55:01.116Z,26.7
2023-05-06T20:00:01.780Z,27.1
2023-05-06T20:05:01.806Z,24.3
2023-05-06T20:10:01.121Z,23.8
2023-05-06T20:15:02.191Z,23.0
2023-05-06T20:20:02.766Z,26.0
2023-05-06T20:25:01.065Z,24.8
2023-05-06T20:30:01.883Z,25.7
2023-05-06T20:35:01.169Z,24.2
2023-05-06T20:40:01.065Z,23.8
2023-05-06T20:45:02.059Z,20.4
2023-05-06T20:50:01.078Z,19.4
2023-05-06T20:55:01.202Z,18.4
2023-05-06T21:00:01.853Z,19.4
2023-05-06T21:05:01.075Z,19.5
2023-05-06T21:10:01.790Z,20.4
2023-05-06T21:15:02.173Z,21.3
2023-05-06T21:20:01.400Z,22.0
2023-05-06T21:25:01.155Z,22.1
2023-05-06T21:30:01.469Z,22.4
2023-05-06T21:35:01.165Z,22.2
2023-05-06T21:40:01.653Z,22.6
2023-05-06T21:45:02.004Z,21.5
2023-05-06T21:50:01.054Z,22.3
2023-05-06T21:55:01.085Z,23.9
2023-05-06T22:00:02.739Z,26.0
2023-05-06T22:05:01.057Z,26.4
2023-05-06T22:10:01.863Z,29.0
2023-05-06T22:15:01.561Z,27.7
2023-05-06T22:20:01.608Z,27.4
2023-05-06T22:25:01.066Z,26.9
2023-05-06T22:30:02.048Z,27.8
2023-05-06T22:35:01.213Z,28.7
2023-05-06T22:40:01.580Z,32.8
2023-05-06T22:45:01.544Z,33.4
2023-05-06T22:50:01.047Z,34.6
2023-05-06T22:55:01.165Z,33.4
2023-05-06T23:00:01.864Z,35.3
2023-05-06T23:05:01.058Z,34.6
2023-05-06T23:10:06.207Z,34.7
2023-05-06T23:15:01.531Z,36.0
2023-05-06T23:20:01.065Z,38.4
2023-05-06T23:25:01.075Z,37.3
2023-05-06T23:30:03.136Z,37.2
2023-05-06T23:35:01.104Z,38.2
2023-05-06T23:40:01.504Z,38.5
2023-05-06T23:45:01.510Z,36.0
2023-05-06T23:50:01.223Z,34.9
2023-05-06T23:56:01.064Z,35.3
